sensor_id;sensor_type;location;lat;lon;timestamp;P1;durP1;ratioP1;P2;durP2;ratioP2
16870;SDS011;8552;48.120;-1.456;2023-06-19T00:01:57;11.27;;;6.47;;
16870;SDS011;8552;48.120;-1.456;2023-06-19T00:04:23;10.55;;;5.88;;
16870;SDS011;8552;48.120;-1.456;2023-06-19T00:06:49;13.25;;;5.93;;
16870;SDS011;8552;48.120;-1.456;2023-06-19T00:09:15;11.73;;;5.85;;
16870;SDS011;8552;48.120;-1.456;2023-06-19T00:11:42;8.88;;;6.55;;
16870;SDS011;8552;48.120;-1.456;2023-06-19T00:14:08;15.10;;;6.90;;
16870;SDS011;8552;48.120;-1.456;2023-06-19T00:16:34;12.45;;;6.25;;
16870;SDS011;8552;48.120;-1.456;2023-06-19T00:19:00;12.45;;;5.72;;
16870;SDS011;8552;48.120;-1.456;2023-06-19T00:21:28;12.60;;;6.22;;
16870;SDS011;8552;48.120;-1.456;2023-06-19T00:23:54;12.82;;;6.68;;
16870;SDS011;8552;48.120;-1.456;2023-06-19T00:26:21;11.27;;;6.60;;
16870;SDS011;8552;48.120;-1.456;2023-06-19T00:28:48;17.23;;;6.93;;
16870;SDS011;8552;48.120;-1.456;2023-06-19T00:31:14;15.45;;;7.20;;
16870;SDS011;8552;48.120;-1.456;2023-06-19T00:33:40;10.65;;;6.18;;
16870;SDS011;8552;48.120;-1.456;2023-06-19T00:36:10;9.43;;;5.80;;
16870;SDS011;8552;48.120;-1.456;2023-06-19T00:38:36;18.83;;;7.03;;
16870;SDS011;8552;48.120;-1.456;2023-06-19T00:41:03;14.18;;;6.47;;
16870;SDS011;8552;48.120;-1.456;2023-06-19T00:43:30;13.18;;;6.28;;
16870;SDS011;8552;48.120;-1.456;2023-06-19T00:45:59;15.35;;;6.22;;
16870;SDS011;8552;48.120;-1.456;2023-06-19T00:48:26;13.48;;;7.22;;
16870;SDS011;8552;48.120;-1.456;2023-06-19T00:50:52;14.50;;;7.10;;
16870;SDS011;8552;48.120;-1.456;2023-06-19T00:53:19;11.95;;;6.88;;
16870;SDS011;8552;48.120;-1.456;2023-06-19T00:55:46;12.68;;;6.95;;
16870;SDS011;8552;48.120;-1.456;2023-06-19T00:58:12;8.98;;;5.53;;
16870;SDS011;8552;48.120;-1.456;2023-06-19T01:00:38;11.07;;;6.05;;
16870;SDS011;8552;48.120;-1.456;2023-06-19T01:03:04;15.85;;;7.50;;
16870;SDS011;8552;48.120;-1.456;2023-06-19T01:05:30;14.30;;;7.65;;
16870;SDS011;8552;48.120;-1.456;2023-06-19T01:10:30;17.17;;;7.97;;
16870;SDS011;8552;48.120;-1.456;2023-06-19T01:13:13;16.92;;;8.00;;
16870;SDS011;8552;48.120;-1.456;2023-06-19T01:15:40;20.95;;;8.05;;
16870;SDS011;8552;48.120;-1.456;2023-06-19T01:18:07;20.13;;;6.97;;
16870;SDS011;8552;48.120;-1.456;2023-06-19T01:20:36;14.88;;;6.90;;
16870;SDS011;8552;48.120;-1.456;2023-06-19T01:23:09;22.33;;;8.40;;
16870;SDS011;8552;48.120;-1.456;2023-06-19T01:25:36;20.00;;;7.72;;
16870;SDS011;8552;48.120;-1.456;2023-06-19T01:28:06;15.75;;;8.70;;
16870;SDS011;8552;48.120;-1.456;2023-06-19T01:30:34;11.80;;;9.00;;
16870;SDS011;8552;48.120;-1.456;2023-06-19T01:35:32;19.73;;;8.93;;
16870;SDS011;8552;48.120;-1.456;2023-06-19T01:37:59;18.08;;;8.77;;
16870;SDS011;8552;48.120;-1.456;2023-06-19T01:40:25;16.98;;;8.70;;
16870;SDS011;8552;48.120;-1.456;2023-06-19T01:42:52;22.23;;;9.15;;
16870;SDS011;8552;48.120;-1.456;2023-06-19T01:45:19;19.85;;;9.32;;
16870;SDS011;8552;48.120;-1.456;2023-06-19T01:47:45;20.88;;;9.75;;
16870;SDS011;8552;48.120;-1.456;2023-06-19T01:50:11;17.00;;;9.85;;
16870;SDS011;8552;48.120;-1.456;2023-06-19T01:52:37;19.95;;;8.75;;
16870;SDS011;8552;48.120;-1.456;2023-06-19T01:55:04;20.42;;;9.60;;
16870;SDS011;8552;48.120;-1.456;2023-06-19T01:57:30;25.15;;;9.23;;
16870;SDS011;8552;48.120;-1.456;2023-06-19T01:59:56;24.38;;;9.95;;
16870;SDS011;8552;48.120;-1.456;2023-06-19T02:02:22;22.38;;;10.55;;
16870;SDS011;8552;48.120;-1.456;2023-06-19T02:04:48;16.50;;;8.55;;
16870;SDS011;8552;48.120;-1.456;2023-06-19T02:07:14;18.30;;;8.63;;
16870;SDS011;8552;48.120;-1.456;2023-06-19T02:09:40;20.92;;;9.10;;
16870;SDS011;8552;48.120;-1.456;2023-06-19T02:12:07;16.40;;;8.57;;
16870;SDS011;8552;48.120;-1.456;2023-06-19T02:14:33;25.88;;;8.88;;
16870;SDS011;8552;48.120;-1.456;2023-06-19T02:16:59;14.55;;;8.10;;
16870;SDS011;8552;48.120;-1.456;2023-06-19T02:19:25;13.50;;;7.22;;
16870;SDS011;8552;48.120;-1.456;2023-06-19T02:21:51;26.65;;;8.77;;
16870;SDS011;8552;48.120;-1.456;2023-06-19T02:24:17;15.55;;;7.60;;
16870;SDS011;8552;48.120;-1.456;2023-06-19T02:26:43;14.35;;;7.47;;
16870;SDS011;8552;48.120;-1.456;2023-06-19T02:29:09;17.95;;;9.70;;
16870;SDS011;8552;48.120;-1.456;2023-06-19T02:31:35;19.75;;;8.85;;
16870;SDS011;8552;48.120;-1.456;2023-06-19T02:34:01;15.02;;;9.55;;
16870;SDS011;8552;48.120;-1.456;2023-06-19T02:36:27;18.50;;;9.13;;
16870;SDS011;8552;48.120;-1.456;2023-06-19T02:38:55;17.67;;;9.13;;
16870;SDS011;8552;48.120;-1.456;2023-06-19T02:41:21;13.00;;;8.45;;
16870;SDS011;8552;48.120;-1.456;2023-06-19T02:43:47;14.15;;;8.23;;
16870;SDS011;8552;48.120;-1.456;2023-06-19T02:46:13;18.35;;;9.27;;
16870;SDS011;8552;48.120;-1.456;2023-06-19T02:48:39;15.98;;;8.98;;
16870;SDS011;8552;48.120;-1.456;2023-06-19T02:51:05;15.18;;;8.43;;
16870;SDS011;8552;48.120;-1.456;2023-06-19T02:53:31;20.35;;;9.75;;
16870;SDS011;8552;48.120;-1.456;2023-06-19T02:55:57;16.27;;;9.02;;
16870;SDS011;8552;48.120;-1.456;2023-06-19T02:58:23;18.45;;;9.55;;
16870;SDS011;8552;48.120;-1.456;2023-06-19T03:00:51;17.85;;;9.88;;
16870;SDS011;8552;48.120;-1.456;2023-06-19T03:03:17;18.20;;;9.27;;
16870;SDS011;8552;48.120;-1.456;2023-06-19T03:05:43;15.70;;;8.98;;
16870;SDS011;8552;48.120;-1.456;2023-06-19T03:08:09;20.45;;;10.55;;
16870;SDS011;8552;48.120;-1.456;2023-06-19T03:10:36;22.70;;;10.45;;
16870;SDS011;8552;48.120;-1.456;2023-06-19T03:13:02;16.60;;;9.18;;
16870;SDS011;8552;48.120;-1.456;2023-06-19T03:15:28;17.88;;;9.30;;
16870;SDS011;8552;48.120;-1.456;2023-06-19T03:17:54;18.83;;;8.88;;
16870;SDS011;8552;48.120;-1.456;2023-06-19T03:20:20;14.38;;;9.45;;
16870;SDS011;8552;48.120;-1.456;2023-06-19T03:22:46;15.07;;;9.07;;
16870;SDS011;8552;48.120;-1.456;2023-06-19T03:25:12;17.67;;;9.35;;
16870;SDS011;8552;48.120;-1.456;2023-06-19T03:27:38;15.80;;;8.73;;
16870;SDS011;8552;48.120;-1.456;2023-06-19T03:30:05;13.07;;;9.25;;
16870;SDS011;8552;48.120;-1.456;2023-06-19T03:32:32;14.45;;;9.18;;
16870;SDS011;8552;48.120;-1.456;2023-06-19T03:34:58;24.63;;;10.50;;
16870;SDS011;8552;48.120;-1.456;2023-06-19T03:37:24;19.75;;;9.90;;
16870;SDS011;8552;48.120;-1.456;2023-06-19T03:39:50;18.40;;;9.07;;
16870;SDS011;8552;48.120;-1.456;2023-06-19T03:42:16;24.25;;;10.02;;
16870;SDS011;8552;48.120;-1.456;2023-06-19T03:44:42;22.85;;;10.93;;
16870;SDS011;8552;48.120;-1.456;2023-06-19T03:47:08;16.00;;;10.00;;
16870;SDS011;8552;48.120;-1.456;2023-06-19T03:49:34;16.77;;;9.57;;
16870;SDS011;8552;48.120;-1.456;2023-06-19T03:52:00;19.98;;;11.48;;
16870;SDS011;8552;48.120;-1.456;2023-06-19T03:54:27;19.83;;;11.07;;
16870;SDS011;8552;48.120;-1.456;2023-06-19T03:56:53;18.83;;;12.02;;
16870;SDS011;8552;48.120;-1.456;2023-06-19T03:59:19;21.17;;;10.75;;
16870;SDS011;8552;48.120;-1.456;2023-06-19T04:01:45;19.80;;;11.68;;
16870;SDS011;8552;48.120;-1.456;2023-06-19T04:04:11;23.52;;;11.57;;
16870;SDS011;8552;48.120;-1.456;2023-06-19T04:06:37;21.38;;;11.77;;
16870;SDS011;8552;48.120;-1.456;2023-06-19T04:09:03;19.30;;;12.65;;
16870;SDS011;8552;48.120;-1.456;2023-06-19T04:11:29;21.25;;;11.80;;
16870;SDS011;8552;48.120;-1.456;2023-06-19T04:13:55;33.65;;;14.60;;
16870;SDS011;8552;48.120;-1.456;2023-06-19T04:16:21;32.17;;;13.07;;
16870;SDS011;8552;48.120;-1.456;2023-06-19T04:18:47;25.70;;;13.77;;
16870;SDS011;8552;48.120;-1.456;2023-06-19T04:21:14;28.13;;;14.90;;
16870;SDS011;8552;48.120;-1.456;2023-06-19T04:23:40;32.80;;;15.82;;
16870;SDS011;8552;48.120;-1.456;2023-06-19T04:26:06;33.00;;;15.60;;
16870;SDS011;8552;48.120;-1.456;2023-06-19T04:28:32;37.20;;;15.15;;
16870;SDS011;8552;48.120;-1.456;2023-06-19T04:30:58;32.65;;;15.10;;
16870;SDS011;8552;48.120;-1.456;2023-06-19T04:33:27;34.65;;;14.88;;
16870;SDS011;8552;48.120;-1.456;2023-06-19T04:35:54;37.25;;;15.95;;
16870;SDS011;8552;48.120;-1.456;2023-06-19T04:38:20;44.92;;;17.42;;
16870;SDS011;8552;48.120;-1.456;2023-06-19T04:40:49;34.20;;;16.70;;
16870;SDS011;8552;48.120;-1.456;2023-06-19T04:43:15;48.65;;;16.73;;
16870;SDS011;8552;48.120;-1.456;2023-06-19T04:45:41;41.33;;;18.05;;
16870;SDS011;8552;48.120;-1.456;2023-06-19T04:48:07;37.38;;;17.05;;
16870;SDS011;8552;48.120;-1.456;2023-06-19T04:50:34;38.67;;;18.27;;
16870;SDS011;8552;48.120;-1.456;2023-06-19T04:53:00;40.40;;;18.13;;
16870;SDS011;8552;48.120;-1.456;2023-06-19T04:55:26;41.72;;;18.88;;
16870;SDS011;8552;48.120;-1.456;2023-06-19T04:57:52;39.35;;;17.95;;
16870;SDS011;8552;48.120;-1.456;2023-06-19T05:00:18;33.00;;;16.40;;
16870;SDS011;8552;48.120;-1.456;2023-06-19T05:02:44;48.60;;;18.85;;
16870;SDS011;8552;48.120;-1.456;2023-06-19T05:05:12;39.45;;;18.85;;
16870;SDS011;8552;48.120;-1.456;2023-06-19T05:07:38;45.40;;;19.35;;
16870;SDS011;8552;48.120;-1.456;2023-06-19T05:10:04;42.20;;;19.02;;
16870;SDS011;8552;48.120;-1.456;2023-06-19T05:12:30;44.47;;;20.42;;
16870;SDS011;8552;48.120;-1.456;2023-06-19T05:14:56;40.90;;;19.27;;
16870;SDS011;8552;48.120;-1.456;2023-06-19T05:17:22;42.50;;;19.45;;
16870;SDS011;8552;48.120;-1.456;2023-06-19T05:19:48;50.80;;;21.25;;
16870;SDS011;8552;48.120;-1.456;2023-06-19T05:22:15;47.58;;;19.60;;
16870;SDS011;8552;48.120;-1.456;2023-06-19T05:24:43;32.10;;;18.35;;
16870;SDS011;8552;48.120;-1.456;2023-06-19T05:27:10;34.00;;;18.83;;
16870;SDS011;8552;48.120;-1.456;2023-06-19T05:29:36;32.17;;;17.58;;
16870;SDS011;8552;48.120;-1.456;2023-06-19T05:32:02;36.55;;;18.80;;
16870;SDS011;8552;48.120;-1.456;2023-06-19T05:34:28;36.53;;;17.35;;
16870;SDS011;8552;48.120;-1.456;2023-06-19T05:36:54;35.20;;;17.83;;
16870;SDS011;8552;48.120;-1.456;2023-06-19T05:39:20;28.42;;;17.05;;
16870;SDS011;8552;48.120;-1.456;2023-06-19T05:41:46;34.33;;;16.60;;
16870;SDS011;8552;48.120;-1.456;2023-06-19T05:44:12;26.05;;;15.25;;
16870;SDS011;8552;48.120;-1.456;2023-06-19T05:46:42;31.65;;;16.55;;
16870;SDS011;8552;48.120;-1.456;2023-06-19T05:49:08;28.83;;;16.40;;
16870;SDS011;8552;48.120;-1.456;2023-06-19T05:51:34;26.95;;;16.05;;
16870;SDS011;8552;48.120;-1.456;2023-06-19T05:54:00;32.97;;;16.60;;
16870;SDS011;8552;48.120;-1.456;2023-06-19T05:56:31;31.35;;;16.98;;
16870;SDS011;8552;48.120;-1.456;2023-06-19T05:58:58;31.85;;;14.80;;
16870;SDS011;8552;48.120;-1.456;2023-06-19T06:01:25;23.10;;;14.43;;
16870;SDS011;8552;48.120;-1.456;2023-06-19T06:03:54;23.00;;;13.85;;
16870;SDS011;8552;48.120;-1.456;2023-06-19T06:06:22;24.92;;;14.75;;
16870;SDS011;8552;48.120;-1.456;2023-06-19T06:08:49;20.77;;;13.77;;
16870;SDS011;8552;48.120;-1.456;2023-06-19T06:11:16;21.83;;;14.20;;
16870;SDS011;8552;48.120;-1.456;2023-06-19T06:13:42;24.95;;;14.48;;
16870;SDS011;8552;48.120;-1.456;2023-06-19T06:16:08;22.08;;;14.38;;
16870;SDS011;8552;48.120;-1.456;2023-06-19T06:18:34;23.25;;;14.18;;
16870;SDS011;8552;48.120;-1.456;2023-06-19T06:21:00;20.95;;;13.27;;
16870;SDS011;8552;48.120;-1.456;2023-06-19T06:23:27;18.90;;;13.38;;
16870;SDS011;8552;48.120;-1.456;2023-06-19T06:25:53;23.40;;;14.00;;
16870;SDS011;8552;48.120;-1.456;2023-06-19T06:28:26;24.00;;;14.40;;
16870;SDS011;8552;48.120;-1.456;2023-06-19T06:30:52;24.23;;;14.60;;
16870;SDS011;8552;48.120;-1.456;2023-06-19T06:33:18;25.40;;;15.90;;
16870;SDS011;8552;48.120;-1.456;2023-06-19T06:35:44;28.40;;;16.65;;
16870;SDS011;8552;48.120;-1.456;2023-06-19T06:38:10;26.13;;;15.73;;
16870;SDS011;8552;48.120;-1.456;2023-06-19T06:40:36;26.30;;;15.88;;
16870;SDS011;8552;48.120;-1.456;2023-06-19T06:43:02;34.53;;;18.10;;
16870;SDS011;8552;48.120;-1.456;2023-06-19T06:45:28;30.48;;;17.25;;
16870;SDS011;8552;48.120;-1.456;2023-06-19T06:47:54;28.67;;;16.88;;
16870;SDS011;8552;48.120;-1.456;2023-06-19T06:50:20;26.48;;;16.67;;
16870;SDS011;8552;48.120;-1.456;2023-06-19T06:52:46;27.70;;;16.50;;
16870;SDS011;8552;48.120;-1.456;2023-06-19T06:55:12;27.80;;;16.58;;
16870;SDS011;8552;48.120;-1.456;2023-06-19T06:57:38;31.52;;;17.23;;
16870;SDS011;8552;48.120;-1.456;2023-06-19T07:00:05;27.85;;;17.38;;
16870;SDS011;8552;48.120;-1.456;2023-06-19T07:02:34;25.98;;;15.70;;
16870;SDS011;8552;48.120;-1.456;2023-06-19T07:05:00;24.85;;;15.63;;
16870;SDS011;8552;48.120;-1.456;2023-06-19T07:07:26;26.27;;;15.10;;
16870;SDS011;8552;48.120;-1.456;2023-06-19T07:09:52;27.80;;;15.68;;
16870;SDS011;8552;48.120;-1.456;2023-06-19T07:12:18;28.90;;;15.88;;
16870;SDS011;8552;48.120;-1.456;2023-06-19T07:14:45;23.42;;;15.40;;
16870;SDS011;8552;48.120;-1.456;2023-06-19T07:17:11;27.08;;;15.43;;
16870;SDS011;8552;48.120;-1.456;2023-06-19T07:19:37;26.02;;;14.45;;
16870;SDS011;8552;48.120;-1.456;2023-06-19T07:22:03;22.13;;;13.90;;
16870;SDS011;8552;48.120;-1.456;2023-06-19T07:24:29;19.52;;;13.38;;
16870;SDS011;8552;48.120;-1.456;2023-06-19T07:26:55;23.65;;;14.65;;
16870;SDS011;8552;48.120;-1.456;2023-06-19T07:29:22;23.88;;;13.55;;
16870;SDS011;8552;48.120;-1.456;2023-06-19T07:31:48;25.10;;;14.95;;
16870;SDS011;8552;48.120;-1.456;2023-06-19T07:34:14;20.65;;;14.77;;
16870;SDS011;8552;48.120;-1.456;2023-06-19T07:36:40;20.30;;;13.10;;
16870;SDS011;8552;48.120;-1.456;2023-06-19T07:39:07;20.83;;;14.68;;
16870;SDS011;8552;48.120;-1.456;2023-06-19T07:41:33;17.52;;;12.70;;
16870;SDS011;8552;48.120;-1.456;2023-06-19T07:43:59;21.90;;;14.10;;
16870;SDS011;8552;48.120;-1.456;2023-06-19T07:46:25;25.02;;;13.55;;
16870;SDS011;8552;48.120;-1.456;2023-06-19T07:48:51;21.80;;;13.20;;
16870;SDS011;8552;48.120;-1.456;2023-06-19T07:51:17;20.95;;;13.48;;
16870;SDS011;8552;48.120;-1.456;2023-06-19T07:53:43;19.23;;;12.85;;
16870;SDS011;8552;48.120;-1.456;2023-06-19T07:56:09;16.30;;;13.15;;
16870;SDS011;8552;48.120;-1.456;2023-06-19T07:58:35;17.70;;;13.00;;
16870;SDS011;8552;48.120;-1.456;2023-06-19T08:01:01;19.95;;;12.93;;
16870;SDS011;8552;48.120;-1.456;2023-06-19T08:03:27;21.35;;;13.13;;
16870;SDS011;8552;48.120;-1.456;2023-06-19T08:05:53;17.83;;;12.38;;
16870;SDS011;8552;48.120;-1.456;2023-06-19T08:08:19;16.88;;;12.07;;
16870;SDS011;8552;48.120;-1.456;2023-06-19T08:10:45;15.30;;;11.23;;
16870;SDS011;8552;48.120;-1.456;2023-06-19T08:13:11;19.77;;;12.60;;
16870;SDS011;8552;48.120;-1.456;2023-06-19T08:15:37;16.88;;;12.32;;
16870;SDS011;8552;48.120;-1.456;2023-06-19T08:18:03;24.65;;;14.30;;
16870;SDS011;8552;48.120;-1.456;2023-06-19T08:20:29;18.95;;;12.80;;
16870;SDS011;8552;48.120;-1.456;2023-06-19T08:22:55;21.70;;;12.48;;
16870;SDS011;8552;48.120;-1.456;2023-06-19T08:25:22;15.55;;;11.98;;
16870;SDS011;8552;48.120;-1.456;2023-06-19T08:27:48;16.05;;;11.93;;
16870;SDS011;8552;48.120;-1.456;2023-06-19T08:30:14;14.57;;;11.10;;
16870;SDS011;8552;48.120;-1.456;2023-06-19T08:32:40;15.00;;;10.35;;
16870;SDS011;8552;48.120;-1.456;2023-06-19T08:35:06;15.30;;;10.43;;
16870;SDS011;8552;48.120;-1.456;2023-06-19T08:37:32;20.25;;;10.48;;
16870;SDS011;8552;48.120;-1.456;2023-06-19T08:39:59;15.85;;;10.40;;
16870;SDS011;8552;48.120;-1.456;2023-06-19T08:42:25;15.27;;;10.63;;
16870;SDS011;8552;48.120;-1.456;2023-06-19T08:44:51;13.40;;;9.63;;
16870;SDS011;8552;48.120;-1.456;2023-06-19T08:47:17;13.68;;;10.68;;
16870;SDS011;8552;48.120;-1.456;2023-06-19T08:49:43;16.08;;;10.70;;
16870;SDS011;8552;48.120;-1.456;2023-06-19T08:52:09;15.73;;;8.98;;
16870;SDS011;8552;48.120;-1.456;2023-06-19T08:54:35;12.27;;;9.02;;
16870;SDS011;8552;48.120;-1.456;2023-06-19T08:57:10;12.90;;;9.45;;
16870;SDS011;8552;48.120;-1.456;2023-06-19T08:59:37;14.90;;;9.73;;
16870;SDS011;8552;48.120;-1.456;2023-06-19T09:02:03;13.77;;;10.18;;
16870;SDS011;8552;48.120;-1.456;2023-06-19T09:04:29;14.40;;;8.80;;
16870;SDS011;8552;48.120;-1.456;2023-06-19T09:06:56;14.02;;;9.35;;
16870;SDS011;8552;48.120;-1.456;2023-06-19T09:09:23;12.50;;;8.38;;
16870;SDS011;8552;48.120;-1.456;2023-06-19T09:14:35;11.43;;;8.27;;
16870;SDS011;8552;48.120;-1.456;2023-06-19T09:17:02;11.77;;;8.13;;
16870;SDS011;8552;48.120;-1.456;2023-06-19T09:19:28;11.57;;;8.38;;
16870;SDS011;8552;48.120;-1.456;2023-06-19T09:22:01;14.27;;;8.18;;
16870;SDS011;8552;48.120;-1.456;2023-06-19T09:24:34;11.60;;;7.53;;
16870;SDS011;8552;48.120;-1.456;2023-06-19T09:27:19;10.65;;;7.60;;
16870;SDS011;8552;48.120;-1.456;2023-06-19T09:29:46;11.43;;;7.47;;
16870;SDS011;8552;48.120;-1.456;2023-06-19T09:32:19;8.98;;;7.38;;
16870;SDS011;8552;48.120;-1.456;2023-06-19T09:34:46;9.68;;;7.65;;
16870;SDS011;8552;48.120;-1.456;2023-06-19T09:37:13;12.60;;;8.05;;
16870;SDS011;8552;48.120;-1.456;2023-06-19T09:39:40;10.63;;;8.13;;
16870;SDS011;8552;48.120;-1.456;2023-06-19T09:42:07;9.75;;;7.13;;
16870;SDS011;8552;48.120;-1.456;2023-06-19T09:44:36;8.65;;;6.60;;
16870;SDS011;8552;48.120;-1.456;2023-06-19T09:47:04;7.22;;;5.80;;
16870;SDS011;8552;48.120;-1.456;2023-06-19T09:49:32;8.23;;;6.28;;
16870;SDS011;8552;48.120;-1.456;2023-06-19T09:52:00;9.07;;;7.05;;
16870;SDS011;8552;48.120;-1.456;2023-06-19T09:54:27;7.22;;;6.38;;
16870;SDS011;8552;48.120;-1.456;2023-06-19T09:56:55;10.20;;;6.50;;
16870;SDS011;8552;48.120;-1.456;2023-06-19T09:59:23;9.13;;;6.43;;
16870;SDS011;8552;48.120;-1.456;2023-06-19T10:01:50;9.25;;;6.28;;
16870;SDS011;8552;48.120;-1.456;2023-06-19T10:04:17;8.93;;;6.20;;
16870;SDS011;8552;48.120;-1.456;2023-06-19T10:06:44;10.20;;;6.20;;
16870;SDS011;8552;48.120;-1.456;2023-06-19T10:09:10;9.70;;;6.20;;
16870;SDS011;8552;48.120;-1.456;2023-06-19T10:11:49;11.55;;;7.93;;
16870;SDS011;8552;48.120;-1.456;2023-06-19T10:14:16;14.30;;;8.68;;
16870;SDS011;8552;48.120;-1.456;2023-06-19T10:16:43;8.43;;;7.30;;
16870;SDS011;8552;48.120;-1.456;2023-06-19T10:19:13;9.32;;;7.13;;
16870;SDS011;8552;48.120;-1.456;2023-06-19T10:21:58;8.80;;;6.90;;
16870;SDS011;8552;48.120;-1.456;2023-06-19T10:24:25;9.93;;;6.95;;
16870;SDS011;8552;48.120;-1.456;2023-06-19T10:27:01;7.28;;;6.15;;
16870;SDS011;8552;48.120;-1.456;2023-06-19T10:29:37;7.72;;;6.47;;
16870;SDS011;8552;48.120;-1.456;2023-06-19T10:32:03;10.85;;;6.78;;
16870;SDS011;8552;48.120;-1.456;2023-06-19T10:34:33;8.73;;;7.03;;
16870;SDS011;8552;48.120;-1.456;2023-06-19T10:36:59;8.82;;;6.28;;
16870;SDS011;8552;48.120;-1.456;2023-06-19T10:39:25;8.65;;;6.65;;
16870;SDS011;8552;48.120;-1.456;2023-06-19T10:41:51;7.72;;;6.30;;
16870;SDS011;8552;48.120;-1.456;2023-06-19T10:44:17;6.78;;;5.40;;
16870;SDS011;8552;48.120;-1.456;2023-06-19T10:46:43;8.93;;;6.40;;
16870;SDS011;8552;48.120;-1.456;2023-06-19T10:49:10;7.30;;;5.47;;
16870;SDS011;8552;48.120;-1.456;2023-06-19T10:51:38;6.70;;;5.65;;
16870;SDS011;8552;48.120;-1.456;2023-06-19T10:54:04;6.00;;;5.13;;
16870;SDS011;8552;48.120;-1.456;2023-06-19T10:56:30;8.88;;;6.22;;
16870;SDS011;8552;48.120;-1.456;2023-06-19T10:59:04;10.20;;;5.65;;
16870;SDS011;8552;48.120;-1.456;2023-06-19T11:01:32;7.13;;;5.85;;
16870;SDS011;8552;48.120;-1.456;2023-06-19T11:03:58;5.70;;;4.93;;
16870;SDS011;8552;48.120;-1.456;2023-06-19T11:06:24;8.48;;;5.68;;
16870;SDS011;8552;48.120;-1.456;2023-06-19T11:08:51;5.35;;;4.70;;
16870;SDS011;8552;48.120;-1.456;2023-06-19T11:11:17;5.75;;;4.53;;
16870;SDS011;8552;48.120;-1.456;2023-06-19T11:13:45;10.02;;;5.07;;
16870;SDS011;8552;48.120;-1.456;2023-06-19T11:16:11;5.63;;;4.18;;
16870;SDS011;8552;48.120;-1.456;2023-06-19T11:18:39;6.13;;;4.95;;
16870;SDS011;8552;48.120;-1.456;2023-06-19T11:21:05;8.10;;;4.97;;
16870;SDS011;8552;48.120;-1.456;2023-06-19T11:23:31;6.03;;;4.35;;
16870;SDS011;8552;48.120;-1.456;2023-06-19T11:26:04;7.03;;;4.90;;
16870;SDS011;8552;48.120;-1.456;2023-06-19T11:28:30;5.45;;;4.95;;
16870;SDS011;8552;48.120;-1.456;2023-06-19T11:31:00;5.43;;;4.93;;
16870;SDS011;8552;48.120;-1.456;2023-06-19T11:33:27;8.32;;;4.55;;
16870;SDS011;8552;48.120;-1.456;2023-06-19T11:35:54;5.47;;;3.97;;
16870;SDS011;8552;48.120;-1.456;2023-06-19T11:38:21;5.60;;;4.00;;
16870;SDS011;8552;48.120;-1.456;2023-06-19T11:40:47;4.82;;;3.55;;
16870;SDS011;8552;48.120;-1.456;2023-06-19T11:43:32;5.10;;;3.83;;
16870;SDS011;8552;48.120;-1.456;2023-06-19T11:46:01;4.50;;;3.70;;
16870;SDS011;8552;48.120;-1.456;2023-06-19T11:48:28;6.18;;;4.88;;
16870;SDS011;8552;48.120;-1.456;2023-06-19T11:50:54;4.97;;;4.43;;
16870;SDS011;8552;48.120;-1.456;2023-06-19T11:53:21;6.60;;;5.13;;
16870;SDS011;8552;48.120;-1.456;2023-06-19T11:55:47;6.65;;;5.10;;
16870;SDS011;8552;48.120;-1.456;2023-06-19T11:58:13;6.70;;;5.45;;
16870;SDS011;8552;48.120;-1.456;2023-06-19T12:00:40;6.55;;;5.10;;
16870;SDS011;8552;48.120;-1.456;2023-06-19T12:03:06;7.25;;;5.00;;
16870;SDS011;8552;48.120;-1.456;2023-06-19T12:05:32;5.95;;;5.35;;
16870;SDS011;8552;48.120;-1.456;2023-06-19T12:07:58;5.30;;;4.40;;
16870;SDS011;8552;48.120;-1.456;2023-06-19T12:10:27;6.90;;;5.10;;
16870;SDS011;8552;48.120;-1.456;2023-06-19T12:12:53;5.53;;;4.22;;
16870;SDS011;8552;48.120;-1.456;2023-06-19T12:15:19;5.95;;;4.28;;
16870;SDS011;8552;48.120;-1.456;2023-06-19T12:17:45;5.53;;;4.50;;
16870;SDS011;8552;48.120;-1.456;2023-06-19T12:20:11;6.30;;;5.00;;
16870;SDS011;8552;48.120;-1.456;2023-06-19T12:22:41;6.22;;;4.68;;
16870;SDS011;8552;48.120;-1.456;2023-06-19T12:25:07;5.00;;;4.32;;
16870;SDS011;8552;48.120;-1.456;2023-06-19T12:27:33;10.23;;;4.53;;
16870;SDS011;8552;48.120;-1.456;2023-06-19T12:30:00;6.80;;;4.50;;
16870;SDS011;8552;48.120;-1.456;2023-06-19T12:32:26;5.03;;;4.20;;
16870;SDS011;8552;48.120;-1.456;2023-06-19T12:34:52;4.72;;;3.97;;
16870;SDS011;8552;48.120;-1.456;2023-06-19T12:37:19;6.53;;;3.88;;
16870;SDS011;8552;48.120;-1.456;2023-06-19T12:39:45;5.10;;;3.58;;
16870;SDS011;8552;48.120;-1.456;2023-06-19T12:42:11;4.75;;;3.63;;
16870;SDS011;8552;48.120;-1.456;2023-06-19T12:44:40;4.22;;;3.83;;
16870;SDS011;8552;48.120;-1.456;2023-06-19T12:47:07;4.32;;;3.70;;
16870;SDS011;8552;48.120;-1.456;2023-06-19T12:49:33;4.47;;;3.83;;
16870;SDS011;8552;48.120;-1.456;2023-06-19T12:51:59;5.35;;;3.67;;
16870;SDS011;8552;48.120;-1.456;2023-06-19T12:54:25;5.78;;;3.88;;
16870;SDS011;8552;48.120;-1.456;2023-06-19T12:56:52;5.65;;;4.28;;
16870;SDS011;8552;48.120;-1.456;2023-06-19T12:59:18;5.25;;;4.00;;
16870;SDS011;8552;48.120;-1.456;2023-06-19T13:01:44;4.53;;;3.50;;
16870;SDS011;8552;48.120;-1.456;2023-06-19T13:04:11;5.03;;;3.42;;
16870;SDS011;8552;48.120;-1.456;2023-06-19T13:06:38;6.25;;;3.47;;
16870;SDS011;8552;48.120;-1.456;2023-06-19T13:09:04;5.15;;;3.35;;
16870;SDS011;8552;48.120;-1.456;2023-06-19T13:11:30;3.20;;;2.90;;
16870;SDS011;8552;48.120;-1.456;2023-06-19T13:13:56;3.88;;;3.13;;
16870;SDS011;8552;48.120;-1.456;2023-06-19T13:16:22;4.07;;;3.15;;
16870;SDS011;8552;48.120;-1.456;2023-06-19T13:18:51;3.78;;;3.47;;
16870;SDS011;8552;48.120;-1.456;2023-06-19T13:21:17;3.72;;;3.40;;
16870;SDS011;8552;48.120;-1.456;2023-06-19T13:23:44;4.35;;;3.15;;
16870;SDS011;8552;48.120;-1.456;2023-06-19T13:26:10;3.55;;;3.25;;
16870;SDS011;8552;48.120;-1.456;2023-06-19T13:28:36;3.92;;;3.20;;
16870;SDS011;8552;48.120;-1.456;2023-06-19T13:31:02;4.80;;;3.53;;
16870;SDS011;8552;48.120;-1.456;2023-06-19T13:33:28;3.95;;;2.83;;
16870;SDS011;8552;48.120;-1.456;2023-06-19T13:35:54;3.88;;;3.25;;
16870;SDS011;8552;48.120;-1.456;2023-06-19T13:38:20;4.55;;;3.42;;
16870;SDS011;8552;48.120;-1.456;2023-06-19T13:40:46;5.15;;;3.47;;
16870;SDS011;8552;48.120;-1.456;2023-06-19T13:43:12;3.20;;;2.90;;
16870;SDS011;8552;48.120;-1.456;2023-06-19T13:45:38;4.60;;;3.38;;
16870;SDS011;8552;48.120;-1.456;2023-06-19T13:48:05;3.10;;;2.80;;
16870;SDS011;8552;48.120;-1.456;2023-06-19T13:50:31;3.92;;;3.35;;
16870;SDS011;8552;48.120;-1.456;2023-06-19T13:52:58;5.85;;;3.05;;
16870;SDS011;8552;48.120;-1.456;2023-06-19T13:55:24;3.10;;;2.80;;
16870;SDS011;8552;48.120;-1.456;2023-06-19T13:57:50;4.65;;;3.13;;
16870;SDS011;8552;48.120;-1.456;2023-06-19T14:00:17;6.05;;;3.22;;
16870;SDS011;8552;48.120;-1.456;2023-06-19T14:02:43;3.30;;;3.00;;
16870;SDS011;8552;48.120;-1.456;2023-06-19T14:05:10;3.53;;;2.60;;
16870;SDS011;8552;48.120;-1.456;2023-06-19T14:07:36;3.08;;;2.78;;
16870;SDS011;8552;48.120;-1.456;2023-06-19T14:10:03;3.03;;;2.75;;
16870;SDS011;8552;48.120;-1.456;2023-06-19T14:12:29;4.63;;;2.85;;
16870;SDS011;8552;48.120;-1.456;2023-06-19T14:14:56;3.88;;;2.92;;
16870;SDS011;8552;48.120;-1.456;2023-06-19T14:17:22;3.15;;;2.63;;
16870;SDS011;8552;48.120;-1.456;2023-06-19T14:19:48;3.58;;;3.03;;
16870;SDS011;8552;48.120;-1.456;2023-06-19T14:22:15;4.93;;;3.20;;
16870;SDS011;8552;48.120;-1.456;2023-06-19T14:24:42;3.22;;;2.92;;
16870;SDS011;8552;48.120;-1.456;2023-06-19T14:27:08;3.78;;;3.08;;
16870;SDS011;8552;48.120;-1.456;2023-06-19T14:29:34;3.28;;;2.67;;
16870;SDS011;8552;48.120;-1.456;2023-06-19T14:32:00;2.80;;;2.58;;
16870;SDS011;8552;48.120;-1.456;2023-06-19T14:34:28;3.25;;;2.55;;
16870;SDS011;8552;48.120;-1.456;2023-06-19T14:36:54;2.80;;;2.60;;
16870;SDS011;8552;48.120;-1.456;2023-06-19T14:39:21;3.17;;;2.70;;